August 10, 2022

Time Code Weather Temp. Visibility Ceiling Wind METAR/SPECI
6:00 am
V
52 °F 20 mi - 110° 110° 6 kt METAR CYEG 101200Z 11006KT 20SM FEW130 FEW250 11/09 A3014 RMK AC1CI1 SLP212
5:00 am
V
52 °F 20 mi - 120° 120° 8 kt METAR CYEG 101100Z 12008KT 20SM FEW110 11/09 A3013 RMK AC1 SLP209
4:00 am
V
54 °F 20 mi - 130° 130° 9 kt METAR CYEG 101000Z 13009KT 20SM FEW110 12/10 A3014 RMK AC1 AC TR SLP210 DENSITY ALT 2400FT
3:00 am
V
55 °F 20 mi - 130° 130° 8 kt METAR CYEG 100900Z 13008KT 20SM FEW110 FEW280 13/10 A3014 RMK AC1CI1 CI TR SLP212 DENSITY ALT 2500FT
2:00 am
V
57 °F 20 mi 28,000 ft 130° 130° 9 kt METAR CYEG 100800Z 13009KT 20SM SCT110 BKN280 14/11 A3014 RMK AC4CI1 SLP209 DENSITY ALT 2600FT
1:00 am
V
59 °F 20 mi 28,000 ft 130° 130° 11 kt METAR CYEG 100700Z 13011KT 20SM SCT110 SCT140 BKN280 15/11 A3013 RMK AC4AC1CI2 AC TR SLP207 DENSITY ALT 2700FT
12:00 am
V
59 °F 20 mi 28,000 ft 130° 130° 10 kt METAR CYEG 100600Z 13010KT 20SM SCT110 BKN280 15/11 A3013 RMK AC3CI3 SLP208 DENSITY ALT 2700FT

August 9, 2022

Time Code Weather Temp. Visibility Ceiling Wind METAR/SPECI
11:00 pm
V
61 °F 20 mi 28,000 ft 110° 110° 11 kt METAR CYEG 100500Z 11011KT 20SM FEW080 BKN280 16/11 A3013 RMK AC1CI5 AC TR SLP207 DENSITY ALT 2900FT
10:00 pm
V
63 °F 20 mi 28,000 ft 110° 110° 11 kt METAR CYEG 100400Z 11011KT 20SM FEW080 SCT230 BKN280 17/12 A3013 RMK AC1CI3CI3 AC TR SLP206 DENSITY ALT 3000FT
9:00 pm
V
66 °F 20 mi 28,000 ft 110° 110° 12 kt METAR CYEG 100300Z 11012KT 20SM SCT230 BKN280 19/12 A3012 RMK CI3CI4 SLP203 DENSITY ALT 3200FT
8:00 pm
V
70 °F 20 mi 28,000 ft 110° 110° 13 kt METAR CYEG 100200Z 11013KT 20SM SCT230 BKN280 21/12 A3012 RMK CI3CI3 SLP206 DENSITY ALT 3400FT
7:00 pm
V
70 °F 20 mi 28,000 ft 120° 120° 11 - 18 kt METAR CYEG 100100Z 12011G18KT 20SM FEW160 SCT230 BKN280 21/12 A3012 RMK AC1CI3CI3 AC TR SLP209 DENSITY ALT 3500FT
6:00 pm
V
70 °F 20 mi - 120° 120° 10 - 15 kt METAR CYEG 100000Z 12010G15KT 20SM FEW046 FEW160 FEW230 21/12 A3012 RMK CU1AC1CI2 CU TR AC TR SLP210 DENSITY ALT 3500FT
5:00 pm
V
73 °F 20 mi - 120° 120° 9 - 18 kt METAR CYEG 092300Z CCA 12009G18KT 20SM FEW046 FEW140 FEW250 23/12 A3013 RMK CF1AC1CI1 CF TR AC TR CI TR SLP212 DENSITY ALT 3600FT
4:00 pm
V
73 °F 20 mi - 120° 120° 13 kt METAR CYEG 092200Z 12013KT 20SM FEW046 FEW080 23/11 A3014 RMK CU1AC1 CU TR AC TR SLP214 DENSITY ALT 3600FT
3:00 pm
V
72 °F 20 mi - 150° 150° 10 - 16 kt METAR CYEG 092100Z 15010G16KT 20SM FEW044 FEW080 22/12 A3014 RMK CU1AC1 CU TR AC TR SLP218 DENSITY ALT 3600FT
2:00 pm
V
72 °F 20 mi - 130° 130° 11 - 16 kt METAR CYEG 092000Z CCA 13011G16KT 20SM FEW044 FEW075 22/11 A3015 RMK CU1AC1 CU TR AC TR SLP221 DENSITY ALT 3500FT
1:00 pm
V
70 °F 20 mi - 140° 140° 8 kt METAR CYEG 091900Z 14008KT 100V180 20SM FEW044 FEW075 FEW180 21/10 A3017 RMK CU1AC1FU1 CU TR AC TR FU LYR ALF E SLP227 DENSITY ALT 3400FT
12:00 pm
V
70 °F 20 mi - 110° 110° 7 kt METAR CYEG 091800Z CCA 11007KT 090V170 20SM FEW075 FEW180 FEW250 21/10 A3018 RMK AC1FU2CI1 AC TR CI TR FU LYR ALF SE SLP230 DENSITY ALT 3300FT
11:00 am
V
68 °F 20 mi - 120° 120° 7 kt METAR CYEG 091700Z 12007KT 090V150 20SM FEW075 FEW180 FEW250 20/09 A3019 RMK AC1FU1CI1 AC TR FU LYR ALF SE SLP233 DENSITY ALT 3200FT
10:00 am
V
66 °F 20 mi - 140° 140° 6 kt METAR CYEG 091600Z 14006KT 20SM FEW082 FEW180 FEW250 19/09 A3019 RMK AC1FU1CI1 AC TR FU LYR ALF E SLP232 DENSITY ALT 3100FT
9:00 am
V
61 °F 20 mi - Var 000° 0 kt METAR CYEG 091500Z 00000KT 20SM FEW082 FEW180 FEW210 16/12 A3020 RMK AC1FU1CI1 CI TR FU LYR ALF E SLP232 DENSITY ALT 2800FT
8:00 am
V
55 °F 20 mi - Var 000° 0 kt METAR CYEG 091400Z 00000KT 20SM FEW082 FEW210 13/11 A3019 RMK AC2CI1 CI TR SLP232 DENSITY ALT 2400FT
7:00 am
V
45 °F 20 mi - Var 000° 0 kt METAR CYEG 091300Z CCA 00000KT 20SM FEW082 FEW210 07/06 A3019 RMK AC2CI1 CI TR SLP234
6:00 am
V
43 °F 20 mi - 170° 170° 2 kt METAR CYEG 091200Z 17002KT 20SM SCT088 06/06 A3018 RMK AC3 SLP231
5:00 am
V
45 °F 20 mi - 190° 190° 4 kt METAR CYEG 091100Z 19004KT 20SM SCT088 07/06 A3018 RMK AC4 SLP230
4:00 am
V
45 °F 20 mi 9,000 ft 190° 190° 5 kt METAR CYEG 091000Z 19005KT 20SM BKN090 07/06 A3017 RMK AC5 SLP226
3:00 am
V
43 °F 20 mi - 200° 200° 6 kt METAR CYEG 090900Z 20006KT 20SM FEW080 06/05 A3016 RMK AC1 AC TR SLP223
2:00 am
V
43 °F 20 mi - 210° 210° 4 kt METAR CYEG 090800Z 21004KT 20SM FEW080 06/06 A3015 RMK AC1 AC TR SLP219
1:00 am
V
43 °F 20 mi - 210° 210° 5 kt METAR CYEG 090700Z 21005KT 20SM FEW080 06/06 A3014 RMK AC1 SLP217
12:00 am
V
48 °F 20 mi - Var 000° 0 kt METAR CYEG 090600Z 00000KT 20SM FEW080 09/07 A3013 RMK AC1 SLP211

August 8, 2022

Time Code Weather Temp. Visibility Ceiling Wind METAR/SPECI
11:00 pm
V
48 °F 20 mi - 210° 210° 2 kt METAR CYEG 090500Z 21002KT 20SM FEW080 09/07 A3012 RMK AC1 AC TR SLP208
10:00 pm
V
54 °F 20 mi - 350° 350° 4 kt METAR CYEG 090400Z 35004KT 20SM FEW080 FEW250 12/09 A3009 RMK AC1CI1 AC TR CI TR SLP196 DENSITY ALT 2400FT
9:00 pm
V
63 °F 20 mi - 350° 350° 5 kt METAR CYEG 090300Z 35005KT 20SM FEW080 FEW250 17/09 A3006 RMK AC1CI1 AC TR CI TR SLP184 DENSITY ALT 3000FT
8:00 pm
V
66 °F 20 mi - 340° 340° 6 kt METAR CYEG 090200Z 34006KT 20SM FEW080 19/09 A3004 RMK AC1 AC TR SLP178 DENSITY ALT 3300FT
7:00 pm
V
68 °F 20 mi - 350° 350° 9 kt METAR CYEG 090100Z 35009KT 20SM FEW080 20/08 A3003 RMK AC1 AC TR SLP176 DENSITY ALT 3500FT
6:00 pm
V
70 °F 20 mi - 350° 350° 11 kt METAR CYEG 090000Z 35011KT 20SM FEW080 21/09 A3002 RMK AC1 AC TR SLP171 DENSITY ALT 3600FT
5:00 pm
V
72 °F 20 mi - 350° 350° 13 - 22 kt METAR CYEG 082300Z 35013G22KT 20SM FEW062 22/08 A3001 RMK SC1 SC TR SLP168 DENSITY ALT 3600FT
4:00 pm
V
72 °F 20 mi - 340° 340° 16 - 21 kt METAR CYEG 082200Z 34016G21KT 20SM FEW062 22/07 A3000 RMK CU1 SLP164 DENSITY ALT 3700FT
3:00 pm
V
72 °F 20 mi - 350° 350° 16 - 25 kt METAR CYEG 082100Z 35016G25KT 20SM FEW062 22/07 A2999 RMK CU1 SLP159 DENSITY ALT 3700FT
2:00 pm
V
72 °F 20 mi - 310° 310° 15 kt METAR CYEG 082000Z 31015KT 300V360 20SM FEW062 FEW080 22/09 A2999 RMK CU2AC1 AC TR SLP156 DENSITY ALT 3700FT
1:00 pm
V
72 °F 20 mi - 300° 300° 20 - 27 kt METAR CYEG 081900Z 30020G27KT 20SM FEW080 22/08 A2998 RMK AC2 SLP152 DENSITY ALT 3700FT
12:00 pm
V
72 °F 20 mi 11,000 ft 320° 320° 16 - 22 kt METAR CYEG 081800Z 32016G22KT 20SM FEW080 BKN110 22/09 A2997 RMK AC2AC4 SLP151 DENSITY ALT 3700FT
11:00 am
V
70 °F 20 mi 7,700 ft 320° 320° 13 - 18 kt METAR CYEG 081700Z 32013G18KT 20SM BKN077 BKN250 21/10 A2996 RMK AC6CI1 CI TR SLP145 DENSITY ALT 3600FT
10:00 am
V
68 °F 20 mi 6,700 ft 330° 330° 10 kt METAR CYEG 081600Z 33010KT 20SM FEW030 BKN067 20/13 A2994 RMK SC1AC7 SC TR SLP138 DENSITY ALT 3600FT
9:00 am
V
64 °F 20 mi - 020° 020° 3 kt METAR CYEG 081500Z 02003KT 340V050 20SM FEW100 18/15 A2991 RMK AC1 AC TR SLP128 DENSITY ALT 3400FT
Older data

We and third parties follow your internet behavior on our website with cookies. If you continue, we assume you agree with our cookie policy. Learn more